createdAt,value
2022-12-01T00:02:04.179Z,101348.00
2022-12-01T00:04:31.957Z,101350.16
2022-12-01T00:06:59.396Z,101351.09
2022-12-01T00:09:45.452Z,101352.13
2022-12-01T00:12:13.191Z,101347.41
2022-12-01T00:14:40.648Z,101352.00
2022-12-01T00:17:08.548Z,101350.31
2022-12-01T00:19:36.296Z,101345.00
2022-12-01T00:22:04.345Z,101351.25
2022-12-01T00:24:31.833Z,101357.00
2022-12-01T00:26:59.613Z,101343.03
2022-12-01T00:29:27.244Z,101352.41
2022-12-01T00:31:54.752Z,101344.38
2022-12-01T00:34:24.947Z,101337.16
2022-12-01T00:36:52.656Z,101344.50
2022-12-01T00:39:21.564Z,101344.88
2022-12-01T00:41:49.367Z,101344.50
2022-12-01T00:44:16.869Z,101339.97
2022-12-01T00:46:44.392Z,101335.50
2022-12-01T00:49:15.611Z,101341.53
2022-12-01T00:51:43.092Z,101342.37
2022-12-01T00:54:10.596Z,101343.53
2022-12-01T00:56:38.394Z,101342.28
2022-12-01T00:59:05.961Z,101343.44
2022-12-01T01:01:33.541Z,101343.78
2022-12-01T01:04:01.556Z,101334.72
2022-12-01T01:06:29.715Z,101330.22
2022-12-01T01:08:57.251Z,101331.94
2022-12-01T01:11:25.675Z,101322.66
2022-12-01T01:13:53.168Z,101328.28
2022-12-01T01:16:21.924Z,101328.44
2022-12-01T01:18:49.831Z,101331.03
2022-12-01T01:21:21.107Z,101338.16
2022-12-01T01:23:49.887Z,101333.94
2022-12-01T01:26:26.897Z,101327.00
2022-12-01T01:29:00.557Z,101328.44
2022-12-01T01:31:29.905Z,101325.69
2022-12-01T01:33:58.144Z,101332.66
2022-12-01T01:36:26.043Z,101326.94
2022-12-01T01:38:55.213Z,101328.41
2022-12-01T01:41:23.973Z,101324.75
2022-12-01T01:44:00.669Z,101316.41
2022-12-01T01:46:33.996Z,101318.53
2022-12-01T01:49:10.412Z,101312.03
2022-12-01T01:51:51.210Z,101310.00
2022-12-01T01:54:26.576Z,101319.97
2022-12-01T01:56:57.472Z,101325.03
2022-12-01T01:59:29.913Z,101313.41
2022-12-01T02:02:03.565Z,101316.97
2022-12-01T02:04:32.689Z,101318.44
2022-12-01T02:07:00.212Z,101316.25
2022-12-01T02:09:27.749Z,101324.41
2022-12-01T02:12:17.300Z,101325.72
2022-12-01T02:15:12.777Z,101331.59
2022-12-01T02:17:46.280Z,101328.16
2022-12-01T02:20:34.577Z,101332.31
2022-12-01T02:23:21.036Z,101331.91
2022-12-01T02:25:57.981Z,101329.22
2022-12-01T02:28:38.106Z,101335.25
2022-12-01T02:31:05.448Z,101331.38
2022-12-01T02:33:40.406Z,101333.78
2022-12-01T02:36:43.435Z,101329.63
2022-12-01T02:39:22.013Z,101339.75
2022-12-01T02:41:54.141Z,101332.63
2022-12-01T02:44:36.452Z,101330.56
2022-12-01T02:47:11.137Z,101325.34
2022-12-01T02:49:43.820Z,101325.63
2022-12-01T02:52:11.592Z,101314.72
2022-12-01T02:54:39.957Z,101329.91
2022-12-01T02:57:12.325Z,101327.47
2022-12-01T02:59:42.560Z,101321.09
2022-12-01T03:02:24.571Z,101320.97
2022-12-01T03:05:11.128Z,101317.69
2022-12-01T03:07:54.182Z,101324.53
2022-12-01T03:10:44.541Z,101318.37
2022-12-01T03:13:39.695Z,101310.81
2022-12-01T03:16:27.324Z,101320.16
2022-12-01T03:19:01.100Z,101321.78
2022-12-01T03:21:48.236Z,101315.13
2022-12-01T03:24:20.112Z,101321.22
2022-12-01T03:26:55.488Z,101314.97
2022-12-01T03:29:38.741Z,101320.41
2022-12-01T03:32:26.429Z,101329.38
2022-12-01T03:34:59.187Z,101328.44
2022-12-01T03:37:33.597Z,101324.28
2022-12-01T03:40:06.334Z,101327.09
2022-12-01T03:42:39.092Z,101322.41
2022-12-01T03:45:11.993Z,101319.47
2022-12-01T03:47:40.495Z,101333.13
2022-12-01T03:50:13.332Z,101329.59
2022-12-01T03:52:49.948Z,101323.22
2022-12-01T03:55:33.228Z,101328.16
2022-12-01T03:58:14.935Z,101338.03
2022-12-01T04:00:43.761Z,101335.81
2022-12-01T04:03:18.096Z,101331.22
2022-12-01T04:05:46.084Z,101326.34
2022-12-01T04:08:13.990Z,101325.84
2022-12-01T04:10:41.408Z,101330.31
2022-12-01T04:13:16.399Z,101332.00
2022-12-01T04:15:44.200Z,101326.78
2022-12-01T04:18:12.013Z,101328.81
2022-12-01T04:20:39.447Z,101326.47
2022-12-01T04:23:07.328Z,101326.59
2022-12-01T04:25:34.780Z,101319.75
2022-12-01T04:28:02.304Z,101331.72
2022-12-01T04:30:30.023Z,101325.03
2022-12-01T04:32:57.828Z,101316.97
2022-12-01T04:35:25.309Z,101315.00
2022-12-01T04:37:52.987Z,101320.12
2022-12-01T04:40:21.708Z,101327.19
2022-12-01T04:42:49.103Z,101333.53
2022-12-01T04:45:16.780Z,101328.34
2022-12-01T04:47:44.519Z,101314.50
2022-12-01T04:50:12.045Z,101320.81
2022-12-01T04:52:39.737Z,101318.47
2022-12-01T04:55:08.517Z,101315.09
2022-12-01T04:57:36.181Z,101312.81
2022-12-01T05:00:12.980Z,101326.94
2022-12-01T05:02:43.358Z,101330.50
2022-12-01T05:05:11.985Z,101327.44
2022-12-01T05:07:39.989Z,101329.91
2022-12-01T05:10:08.201Z,101325.72
2022-12-01T05:12:35.940Z,101336.44
2022-12-01T05:15:03.616Z,101332.44
2022-12-01T05:17:36.778Z,101336.31
2022-12-01T05:20:24.296Z,101341.41
2022-12-01T05:23:10.817Z,101320.09
2022-12-01T05:25:40.371Z,101329.13
2022-12-01T05:28:07.960Z,101322.66
2022-12-01T05:30:35.409Z,101324.94
2022-12-01T05:33:03.530Z,101324.97
2022-12-01T05:35:33.823Z,101333.69
2022-12-01T05:38:06.206Z,101331.03
2022-12-01T05:40:36.499Z,101309.44
2022-12-01T05:43:04.652Z,101324.19
2022-12-01T05:45:32.408Z,101325.81
2022-12-01T05:48:02.019Z,101319.16
2022-12-01T05:50:30.439Z,101324.81
2022-12-01T05:52:58.053Z,101321.87
2022-12-01T05:55:25.809Z,101335.59
2022-12-01T05:57:53.572Z,101325.91
2022-12-01T06:00:21.388Z,101330.53
2022-12-01T06:02:49.179Z,101335.06
2022-12-01T06:05:16.857Z,101341.75
2022-12-01T06:07:44.326Z,101341.16
2022-12-01T06:10:13.199Z,101345.16
2022-12-01T06:12:41.258Z,101342.94
2022-12-01T06:15:10.608Z,101348.59
2022-12-01T06:17:40.509Z,101341.66
2022-12-01T06:20:09.619Z,101351.25
2022-12-01T06:22:37.328Z,101351.50
2022-12-01T06:25:05.443Z,101353.78
2022-12-01T06:27:33.048Z,101352.19
2022-12-01T06:30:00.527Z,101362.81
2022-12-01T06:32:28.264Z,101370.66
2022-12-01T06:34:55.697Z,101358.25
2022-12-01T06:37:23.313Z,101360.53
2022-12-01T06:39:51.208Z,101360.44
2022-12-01T06:42:18.991Z,101358.13
2022-12-01T06:44:46.434Z,101361.41
2022-12-01T06:47:15.891Z,101359.00
2022-12-01T06:49:44.255Z,101363.69
2022-12-01T06:52:16.841Z,101363.38
2022-12-01T06:54:53.658Z,101366.72
2022-12-01T06:57:21.347Z,101371.88
2022-12-01T06:59:51.419Z,101384.06
2022-12-01T07:02:25.133Z,101383.53
2022-12-01T07:04:53.175Z,101387.25
2022-12-01T07:07:20.707Z,101388.44
2022-12-01T07:09:48.953Z,101392.78
2022-12-01T07:12:16.952Z,101381.44
2022-12-01T07:14:45.211Z,101380.44
2022-12-01T07:17:12.723Z,101393.16
2022-12-01T07:19:40.700Z,101388.16
2022-12-01T07:22:08.150Z,101382.50
2022-12-01T07:24:36.289Z,101385.16
2022-12-01T07:27:04.007Z,101387.88
2022-12-01T07:29:31.455Z,101382.63
2022-12-01T07:31:59.139Z,101376.56
2022-12-01T07:34:26.877Z,101380.09
2022-12-01T07:36:54.317Z,101375.87
2022-12-01T07:39:21.785Z,101381.28
2022-12-01T07:41:49.552Z,101382.19
2022-12-01T07:44:17.063Z,101380.62
2022-12-01T07:46:44.525Z,101370.75
2022-12-01T07:49:14.865Z,101373.16
2022-12-01T07:51:42.544Z,101375.56
2022-12-01T07:54:10.822Z,101378.63
2022-12-01T07:56:38.552Z,101377.44
2022-12-01T07:59:06.329Z,101364.53
2022-12-01T08:01:33.897Z,101371.22
2022-12-01T08:04:01.690Z,101366.59
2022-12-01T08:06:29.264Z,101339.16
2022-12-01T08:08:56.806Z,101360.97
2022-12-01T08:11:26.817Z,101351.22
2022-12-01T08:13:54.301Z,101359.94
2022-12-01T08:16:23.356Z,101358.06
2022-12-01T08:18:51.577Z,101357.25
2022-12-01T08:21:21.260Z,101363.94
2022-12-01T08:23:52.515Z,101371.56
2022-12-01T08:26:20.706Z,101373.56
2022-12-01T08:28:49.517Z,101364.66
2022-12-01T08:31:21.203Z,101371.66
2022-12-01T08:33:50.611Z,101372.59
2022-12-01T08:36:19.936Z,101379.66
2022-12-01T08:38:49.386Z,101378.59
2022-12-01T08:41:17.873Z,101376.13
2022-12-01T08:44:01.753Z,101379.00
2022-12-01T08:46:34.245Z,101360.00
2022-12-01T08:49:03.785Z,101371.88
2022-12-01T08:51:32.540Z,101369.06
2022-12-01T08:54:01.625Z,101363.28
2022-12-01T08:56:32.533Z,101364.31
2022-12-01T08:59:00.982Z,101365.81
2022-12-01T09:01:29.249Z,101365.31
2022-12-01T09:04:10.556Z,101369.09
2022-12-01T09:06:43.527Z,101364.97
2022-12-01T09:09:13.435Z,101367.22
2022-12-01T09:11:43.778Z,101371.09
2022-12-01T09:14:13.157Z,101361.63
2022-12-01T09:16:42.546Z,101355.28
2022-12-01T09:19:13.082Z,101358.78
2022-12-01T09:21:43.472Z,101351.09
2022-12-01T09:24:13.193Z,101353.28
2022-12-01T09:26:41.774Z,101347.44
2022-12-01T09:29:11.866Z,101336.69
2022-12-01T09:31:40.105Z,101337.88
2022-12-01T09:34:12.045Z,101341.81
2022-12-01T09:36:39.792Z,101341.38
2022-12-01T09:39:08.547Z,101340.78
2022-12-01T09:41:50.014Z,101335.19
2022-12-01T09:44:38.509Z,101347.31
2022-12-01T09:47:29.147Z,101338.41
2022-12-01T09:50:21.909Z,101336.31
2022-12-01T09:52:57.770Z,101343.91
2022-12-01T09:55:26.758Z,101337.00
2022-12-01T09:57:57.465Z,101334.78
2022-12-01T10:00:31.102Z,101328.28
2022-12-01T10:03:01.883Z,101326.09
2022-12-01T10:05:40.726Z,101324.31
2022-12-01T10:08:22.417Z,101314.31
2022-12-01T10:10:58.584Z,101310.00
2022-12-01T10:13:28.977Z,101308.56
2022-12-01T10:16:09.431Z,101309.91
2022-12-01T10:18:56.467Z,101319.66
2022-12-01T10:21:39.188Z,101317.06
2022-12-01T10:24:27.172Z,101312.06
2022-12-01T10:27:26.622Z,101311.59
2022-12-01T10:30:03.214Z,101312.97
2022-12-01T10:32:55.037Z,101307.63
2022-12-01T10:35:27.259Z,101309.41
2022-12-01T10:38:04.085Z,101314.09
2022-12-01T10:40:35.218Z,101300.97
2022-12-01T10:43:03.281Z,101301.59
2022-12-01T10:45:37.296Z,101306.97
2022-12-01T10:48:16.503Z,101297.72
2022-12-01T10:50:50.470Z,101293.34
2022-12-01T10:53:24.381Z,101287.59
2022-12-01T10:56:09.608Z,101288.88
2022-12-01T10:58:43.846Z,101286.69
2022-12-01T11:01:24.046Z,101289.78
2022-12-01T11:04:01.827Z,101296.06
2022-12-01T11:06:31.193Z,101287.94
2022-12-01T11:09:02.266Z,101283.31
2022-12-01T11:11:40.621Z,101286.31
2022-12-01T11:14:23.855Z,101285.91
2022-12-01T11:16:54.002Z,101289.62
2022-12-01T11:19:26.857Z,101286.34
2022-12-01T11:22:17.994Z,101289.94
2022-12-01T11:24:58.663Z,101298.28
2022-12-01T11:27:31.464Z,101292.94
2022-12-01T11:30:05.542Z,101280.69
2022-12-01T11:32:37.893Z,101286.22
2022-12-01T11:35:21.054Z,101281.59
2022-12-01T11:38:21.060Z,101272.66
2022-12-01T11:43:30.508Z,101279.56
2022-12-01T11:46:02.553Z,101279.44
2022-12-01T11:48:32.366Z,101279.22
2022-12-01T11:51:06.888Z,101270.03
2022-12-01T11:53:43.046Z,101269.69
2022-12-01T11:56:28.794Z,101271.91
2022-12-01T11:59:01.516Z,101267.56
2022-12-01T12:01:50.658Z,101266.06
2022-12-01T12:04:49.250Z,101271.63
2022-12-01T12:07:19.952Z,101269.22
2022-12-01T12:10:09.674Z,101270.94
2022-12-01T12:13:02.997Z,101277.97
2022-12-01T12:16:04.648Z,101263.38
2022-12-01T12:18:55.764Z,101265.69
2022-12-01T12:21:33.260Z,101267.63
2022-12-01T12:24:19.595Z,101271.41
2022-12-01T12:27:26.697Z,101269.97
2022-12-01T12:30:15.740Z,101276.06
2022-12-01T12:33:08.596Z,101285.03
2022-12-01T12:36:00.620Z,101279.44
2022-12-01T12:38:31.316Z,101275.19
2022-12-01T12:41:13.732Z,101283.81
2022-12-01T12:44:00.152Z,101278.28
2022-12-01T12:46:49.540Z,101280.97
2022-12-01T12:49:55.157Z,101278.50
2022-12-01T12:52:31.748Z,101281.78
2022-12-01T12:55:10.993Z,101274.50
2022-12-01T12:57:45.531Z,101275.75
2022-12-01T13:00:20.334Z,101278.88
2022-12-01T13:03:09.555Z,101281.59
2022-12-01T13:05:57.653Z,101280.09
2022-12-01T13:08:34.212Z,101279.31
2022-12-01T13:11:10.163Z,101269.72
2022-12-01T13:13:46.091Z,101276.91
2022-12-01T13:16:19.764Z,101265.59
2022-12-01T13:18:59.836Z,101270.69
2022-12-01T13:21:27.951Z,101271.78
2022-12-01T13:23:55.626Z,101268.59
2022-12-01T13:26:23.404Z,101265.88
2022-12-01T13:28:55.584Z,101266.50
2022-12-01T13:31:23.306Z,101263.91
2022-12-01T13:34:06.180Z,101267.00
2022-12-01T13:36:49.692Z,101268.81
2022-12-01T13:39:25.478Z,101273.72
2022-12-01T13:42:01.117Z,101268.38
2022-12-01T13:44:34.325Z,101271.50
2022-12-01T13:47:24.705Z,101267.59
2022-12-01T13:49:54.715Z,101273.16
2022-12-01T13:52:22.294Z,101269.62
2022-12-01T13:55:07.728Z,101279.34
2022-12-01T13:57:38.741Z,101282.06
2022-12-01T14:00:08.979Z,101276.91
2022-12-01T14:02:39.827Z,101284.47
2022-12-01T14:05:42.053Z,101283.41
2022-12-01T14:08:55.301Z,101274.66
2022-12-01T14:11:25.670Z,101279.69
2022-12-01T14:14:00.799Z,101278.72
2022-12-01T14:16:57.422Z,101277.28
2022-12-01T14:19:32.709Z,101278.63
2022-12-01T14:22:01.781Z,101285.75
2022-12-01T14:24:38.179Z,101281.37
2022-12-01T14:27:07.361Z,101287.31
2022-12-01T14:29:39.865Z,101276.41
2022-12-01T14:32:08.281Z,101280.19
2022-12-01T14:34:39.471Z,101283.53
2022-12-01T14:37:14.360Z,101282.09
2022-12-01T14:39:45.716Z,101277.19
2022-12-01T14:42:48.760Z,101281.66
2022-12-01T14:45:25.116Z,101288.94
2022-12-01T14:48:01.963Z,101289.91
2022-12-01T14:50:51.417Z,101287.19
2022-12-01T16:01:14.957Z,101291.13
2022-12-01T16:04:06.502Z,101285.22
2022-12-01T16:06:36.609Z,101293.44
2022-12-01T16:09:16.973Z,101291.00
2022-12-01T16:12:09.812Z,101290.59
2022-12-01T16:15:08.336Z,101291.37
2022-12-01T16:17:48.244Z,101291.06
2022-12-01T16:20:34.357Z,101287.81
2022-12-01T16:23:11.495Z,101291.56
2022-12-01T16:25:43.581Z,101289.97
2022-12-01T16:28:28.173Z,101289.97
2022-12-01T16:30:56.722Z,101290.22
2022-12-01T16:33:26.772Z,101293.47
2022-12-01T16:35:54.917Z,101287.00
2022-12-01T16:38:25.232Z,101293.19
2022-12-01T16:40:54.956Z,101291.50
2022-12-01T16:43:25.874Z,101292.62
2022-12-01T16:46:03.262Z,101294.22
2022-12-01T16:48:31.608Z,101288.69
2022-12-01T16:51:03.416Z,101292.16
2022-12-01T16:53:31.537Z,101286.31
2022-12-01T16:56:01.728Z,101282.59
2022-12-01T16:58:29.580Z,101293.28
2022-12-01T17:00:57.648Z,101293.97
2022-12-01T17:03:27.191Z,101298.13
2022-12-01T17:05:55.103Z,101285.56
2022-12-01T17:08:23.182Z,101286.22
2022-12-01T17:10:51.789Z,101293.00
2022-12-01T17:13:23.289Z,101297.38
2022-12-01T17:15:53.550Z,101301.53
2022-12-01T17:18:23.380Z,101304.78
2022-12-01T17:21:03.632Z,101308.16
2022-12-01T17:23:33.044Z,101306.38
2022-12-01T17:26:01.308Z,101305.88
2022-12-01T17:28:28.820Z,101302.53
2022-12-01T17:31:00.501Z,101304.78
2022-12-01T17:33:28.352Z,101313.66
2022-12-01T17:36:00.221Z,101310.12
2022-12-01T17:38:28.258Z,101307.13
2022-12-01T17:41:11.422Z,101311.69
2022-12-01T17:43:40.184Z,101310.19
2022-12-01T17:46:09.558Z,101313.97
2022-12-01T17:48:47.115Z,101308.97
2022-12-01T17:51:15.688Z,101311.91
2022-12-01T17:53:43.456Z,101311.97
2022-12-01T17:56:13.215Z,101318.75
2022-12-01T17:58:41.505Z,101315.88
2022-12-01T18:01:17.764Z,101292.25
2022-12-01T18:03:46.994Z,101311.78
2022-12-01T18:06:15.779Z,101314.25
2022-12-01T18:08:43.429Z,101315.37
2022-12-01T18:11:14.436Z,101313.75
2022-12-01T18:13:44.772Z,101317.09
2022-12-01T18:16:20.287Z,101313.09
2022-12-01T18:18:48.818Z,101314.72
2022-12-01T18:21:19.607Z,101325.84
2022-12-01T18:23:52.492Z,101327.84
2022-12-01T18:26:22.008Z,101324.06
2022-12-01T18:29:07.528Z,101328.56
2022-12-01T18:31:35.744Z,101325.66
2022-12-01T18:34:04.820Z,101320.09
2022-12-01T18:36:34.665Z,101318.47
2022-12-01T18:39:04.375Z,101315.16
2022-12-01T18:41:32.387Z,101320.69
2022-12-01T18:44:00.320Z,101323.28
2022-12-01T18:46:29.063Z,101333.75
2022-12-01T18:49:04.661Z,101326.78
2022-12-01T18:51:35.130Z,101331.00
2022-12-01T18:54:04.732Z,101334.19
2022-12-01T18:56:33.116Z,101328.03
2022-12-01T18:59:06.857Z,101326.50
2022-12-01T19:01:37.977Z,101325.44
2022-12-01T19:04:07.080Z,101327.47
2022-12-01T19:06:36.796Z,101320.59
2022-12-01T19:09:06.941Z,101329.13
2022-12-01T19:11:37.742Z,101324.56
2022-12-01T19:14:06.016Z,101327.09
2022-12-01T19:16:33.879Z,101336.25
2022-12-01T19:19:02.014Z,101341.13
2022-12-01T19:21:29.784Z,101341.13
2022-12-01T19:24:00.272Z,101331.06
2022-12-01T19:26:28.094Z,101331.91
2022-12-01T19:28:55.992Z,101330.19
2022-12-01T19:31:24.940Z,101334.19
2022-12-01T19:33:54.049Z,101329.97
2022-12-01T20:06:37.263Z,101336.88
2022-12-01T20:09:07.143Z,101343.03
2022-12-01T20:11:35.561Z,101339.50
2022-12-01T20:14:07.415Z,101344.03
2022-12-01T20:16:35.707Z,101339.13
2022-12-01T20:19:05.276Z,101342.59
2022-12-01T20:21:42.177Z,101346.66
2022-12-01T20:24:16.358Z,101349.75
2022-12-01T20:26:52.798Z,101351.38
2022-12-01T20:29:27.338Z,101345.59
2022-12-01T20:32:02.943Z,101351.16
2022-12-01T20:34:36.167Z,101345.53
2022-12-01T20:37:04.541Z,101351.50
2022-12-01T20:39:34.693Z,101349.19
2022-12-01T20:42:02.218Z,101351.75
2022-12-01T20:44:29.629Z,101352.84
2022-12-01T20:46:57.870Z,101349.53
2022-12-01T20:49:25.985Z,101354.56
2022-12-01T20:51:53.668Z,101353.41
2022-12-01T20:54:30.036Z,101362.53
2022-12-01T20:56:58.957Z,101360.34
2022-12-01T20:59:27.780Z,101366.13
2022-12-01T21:01:55.610Z,101361.72
2022-12-01T21:04:23.500Z,101358.28
2022-12-01T21:06:51.984Z,101367.88
2022-12-01T21:09:19.591Z,101365.81
2022-12-01T21:12:09.245Z,101367.84
2022-12-01T21:14:59.761Z,101362.78
2022-12-01T21:17:38.467Z,101367.12
2022-12-01T21:20:21.457Z,101361.09
2022-12-01T21:22:50.646Z,101365.37
2022-12-01T21:25:22.878Z,101365.41
2022-12-01T21:27:50.706Z,101355.56
2022-12-01T21:30:22.584Z,101368.75
2022-12-01T21:32:50.431Z,101367.91
2022-12-01T21:35:24.834Z,101368.63
2022-12-01T21:38:02.163Z,101362.63
2022-12-01T21:40:30.891Z,101365.87
2022-12-01T21:43:11.905Z,101371.66
2022-12-01T21:45:39.660Z,101363.97
2022-12-01T21:48:16.772Z,101368.16
2022-12-01T21:50:48.084Z,101377.62
2022-12-01T21:53:20.530Z,101372.06
2022-12-01T21:55:49.323Z,101357.91
2022-12-01T21:58:19.420Z,101374.00
2022-12-01T22:00:46.932Z,101376.84
2022-12-01T22:03:31.481Z,101377.56
2022-12-01T22:06:29.232Z,101377.62
2022-12-01T22:09:01.441Z,101388.38
2022-12-01T22:11:30.740Z,101392.56
2022-12-01T22:14:19.865Z,101377.84
2022-12-01T22:16:53.101Z,101377.25
2022-12-01T22:19:35.453Z,101371.66
2022-12-01T22:22:23.786Z,101378.22
2022-12-01T22:25:25.284Z,101381.41
2022-12-01T22:27:52.766Z,101374.12
2022-12-01T22:30:22.965Z,101376.59
2022-12-01T22:32:50.449Z,101381.28
2022-12-01T22:35:28.817Z,101373.91
2022-12-01T22:38:05.764Z,101368.22
2022-12-01T22:40:40.687Z,101371.28
2022-12-01T22:43:17.872Z,101374.47
2022-12-01T22:45:48.151Z,101374.59
2022-12-01T22:48:46.766Z,101377.75
2022-12-01T22:51:14.191Z,101371.28
2022-12-01T22:53:44.708Z,101377.59
2022-12-01T22:56:36.507Z,101369.81
2022-12-01T22:59:21.847Z,101363.84
2022-12-01T23:02:00.599Z,101365.59
2022-12-01T23:04:33.127Z,101374.75
2022-12-01T23:07:04.021Z,101367.03
2022-12-01T23:09:36.645Z,101358.13
2022-12-01T23:12:10.258Z,101361.22
2022-12-01T23:14:43.485Z,101361.22
2022-12-01T23:17:18.928Z,101358.38
2022-12-01T23:19:48.380Z,101364.53
2022-12-01T23:22:16.755Z,101356.41
2022-12-01T23:24:44.788Z,101355.16
2022-12-01T23:27:18.397Z,101363.88
2022-12-01T23:29:46.112Z,101342.66
2022-12-01T23:32:14.238Z,101361.78
2022-12-01T23:34:41.652Z,101360.44
2022-12-01T23:37:28.992Z,101362.81
2022-12-01T23:39:57.177Z,101359.09
2022-12-01T23:42:24.581Z,101360.94
2022-12-01T23:44:53.019Z,101355.72
2022-12-01T23:47:27.175Z,101348.69
2022-12-01T23:50:06.764Z,101344.34
2022-12-01T23:52:36.595Z,101348.44
2022-12-01T23:55:22.076Z,101350.66
2022-12-01T23:57:51.431Z,101351.78
